Time;durP1;ratioP1;P1;durP2;ratioP2;P2;SDS_P1;SDS_P2;PMS_P1;PMS_P2;Temp;Humidity;BMP_temperature;BMP_pressure;BME280_temperature;BME280_humidity;BME280_pressure;Samples;Min_cycle;Max_cycle;Signal;HPM_P1;HPM_P2
2021/10/31 00:01:25;;;;;;;;;;;;;;;;;;5133310;28;20376;-67
2021/10/31 00:03:51;;;;;;;;;;;;;;;;;;5133255;28;19931;-66
2021/10/31 00:06:18;;;;;;;;;;;;;;;;;;5133594;28;19923;-66
2021/10/31 00:08:44;;;;;;;;;;;;;;;;;;5133064;28;19934;-66
2021/10/31 00:11:10;;;;;;;;;;;;;;;;;;5133649;28;19924;-67
2021/10/31 00:13:37;;;;;;;;;;;;;;;;;;5133012;28;20369;-67
2021/10/31 00:16:03;;;;;;;;;;;;;;;;;;5133049;28;19927;-67
2021/10/31 00:18:29;;;;;;;;;;;;;;;;;;5133199;28;19923;-67
2021/10/31 00:20:56;;;;;;;;;;;;;;;;;;5133232;28;19931;-67
2021/10/31 00:23:23;;;;;;;;;;;;;;;;;;5133531;28;19923;-67
2021/10/31 00:25:49;;;;;;;;;;;;;;;;;;5133017;28;19923;-66
2021/10/31 00:28:15;;;;;;;;;;;;;;;;;;5133076;28;19924;-67
2021/10/31 00:30:42;;;;;;;;;;;;;;;;;;5133090;28;19924;-67
2021/10/31 00:33:08;;;;;;;;;;;;;;;;;;5136106;27;19924;-66
2021/10/31 00:35:34;;;;;;;;;;;;;;;;;;5136662;27;19927;-67
2021/10/31 00:38:01;;;;;;;;;;;;;;;;;;5137103;27;19923;-67
2021/10/31 00:40:27;;;;;;;;;;;;;;;;;;5136629;27;19923;-67
2021/10/31 00:42:53;;;;;;;;;;;;;;;;;;5137097;27;19938;-66
2021/10/31 00:45:19;;;;;;;;;;;;;;;;;;5136762;27;20012;-66
2021/10/31 00:47:46;;;;;;;;;;;;;;;;;;5136769;27;19927;-67
2021/10/31 00:50:12;;;;;;;;;;;;;;;;;;5137120;27;20288;-67
2021/10/31 00:52:39;;;;;;;;;;;;;;;;;;5136350;27;20369;-66
2021/10/31 00:55:05;;;;;;;;;;;;;;;;;;5136468;27;19977;-66
2021/10/31 00:57:31;;;;;;;;;;;;;;;;;;5136558;27;19930;-66
2021/10/31 00:59:57;;;;;;;;;;;;;;;;;;5136440;27;20403;-66
2021/10/31 01:02:24;;;;;;;;;;;;;;;;;;5136455;27;19931;-66
2021/10/31 01:04:51;;;;;;;;;;;;;;;;;;5136647;27;19929;-66
2021/10/31 01:07:18;;;;;;;;;;;;;;;;;;5136201;27;20385;-67
2021/10/31 01:09:44;;;;;;;;;;;;;;;;;;5136178;27;19929;-66
2021/10/31 01:12:10;;;;;;;;;;;;;;;;;;5136754;27;19923;-67
2021/10/31 01:14:37;;;;;;;;;;;;;;;;;;5136338;27;19976;-67
2021/10/31 01:17:03;;;;;;;;;;;;;;;;;;5136230;27;19930;-66
2021/10/31 01:19:29;;;;;;;;;;;;;;;;;;5136098;27;19929;-66
2021/10/31 01:21:56;;;;;;;;;;;;;;;;;;5135849;27;20400;-66
2021/10/31 01:24:22;;;;;;;;;;;;;;;;;;5136342;27;19924;-67
2021/10/31 01:26:48;;;;;;;;;;;;;;;;;;5136055;27;19930;-66
2021/10/31 01:29:15;;;;;;;;;;;;;;;;;;5136414;27;19988;-66
2021/10/31 01:31:41;;;;;;;;;;;;;;;;;;5135621;27;19931;-67
2021/10/31 01:34:07;;;;;;;;;;;;;;;;;;5136128;27;19924;-67
2021/10/31 01:36:33;;;;;;;;;;;;;;;;;;5135788;27;19946;-67
2021/10/31 01:39:00;;;;;;;;;;;;;;;;;;5135568;27;19931;-67
2021/10/31 01:41:26;;;;;;;;;;;;;;;;;;5135307;27;19980;-67
2021/10/31 01:43:52;;;;;;;;;;;;;;;;;;5135124;27;19923;-67
2021/10/31 01:46:19;;;;;;;;;;;;;;;;;;5135592;27;20366;-67
2021/10/31 01:48:45;;;;;;;;;;;;;;;;;;5135180;27;19923;-67
2021/10/31 01:51:11;;;;;;;;;;;;;;;;;;5135779;27;19924;-67
2021/10/31 01:53:38;;;;;;;;;;;;;;;;;;5135136;27;19930;-67
2021/10/31 01:56:04;;;;;;;;;;;;;;;;;;5135796;27;19930;-68
2021/10/31 01:58:30;;;;;;;;;;;;;;;;;;5135266;27;19947;-67
2021/10/31 02:00:57;;;;;;;;;;;;;;;;;;5135437;27;19927;-67
2021/10/31 02:03:23;;;;;;;;;;;;;;;;;;5135504;27;19930;-67
2021/10/31 02:05:49;;;;;;;;;;;;;;;;;;5134979;27;20373;-67
2021/10/31 02:08:15;;;;;;;;;;;;;;;;;;5135200;27;20377;-67
2021/10/31 02:10:42;;;;;;;;;;;;;;;;;;5135198;27;19924;-67
2021/10/31 02:13:08;;;;;;;;;;;;;;;;;;5135107;27;20333;-67
2021/10/31 02:15:34;;;;;;;;;;;;;;;;;;5134907;27;19930;-67
2021/10/31 02:18:01;;;;;;;;;;;;;;;;;;5135158;27;19930;-67
2021/10/31 02:20:27;;;;;;;;;;;;;;;;;;5134523;27;19923;-66
2021/10/31 02:22:54;;;;;;;;;;;;;;;;;;5135342;27;19923;-67
2021/10/31 02:25:20;;;;;;;;;;;;;;;;;;5135072;27;19945;-67
2021/10/31 02:27:46;;;;;;;;;;;;;;;;;;5134714;27;19965;-67
2021/10/31 02:30:13;;;;;;;;;;;;;;;;;;5135002;27;20297;-68
2021/10/31 02:32:39;;;;;;;;;;;;;;;;;;5134685;27;19923;-67
2021/10/31 02:35:08;;;;;;;;;;;;;;;;;;5134875;27;19923;-67
2021/10/31 02:37:34;;;;;;;;;;;;;;;;;;5134290;27;19924;-67
2021/10/31 02:40:01;;;;;;;;;;;;;;;;;;5134858;27;19923;-68
2021/10/31 02:42:27;;;;;;;;;;;;;;;;;;5134266;27;20409;-68
2021/10/31 02:44:53;;;;;;;;;;;;;;;;;;5134895;27;19931;-67
2021/10/31 02:47:21;;;;;;;;;;;;;;;;;;5134706;27;19923;-67
2021/10/31 02:49:47;;;;;;;;;;;;;;;;;;5134410;27;19931;-67
2021/10/31 02:52:13;;;;;;;;;;;;;;;;;;5134327;27;19924;-67
2021/10/31 02:54:39;;;;;;;;;;;;;;;;;;5134276;27;19924;-67
2021/10/31 02:57:06;;;;;;;;;;;;;;;;;;5134470;27;19923;-67
2021/10/31 02:59:32;;;;;;;;;;;;;;;;;;5133825;27;19923;-67
2021/10/31 03:01:58;;;;;;;;;;;;;;;;;;5134463;27;19930;-68
2021/10/31 03:04:26;;;;;;;;;;;;;;;;;;5134096;27;20391;-68
2021/10/31 03:06:53;;;;;;;;;;;;;;;;;;5134274;27;19931;-67
2021/10/31 03:09:19;;;;;;;;;;;;;;;;;;5133926;27;20409;-67
2021/10/31 03:11:45;;;;;;;;;;;;;;;;;;5134037;27;19935;-68
2021/10/31 03:14:12;;;;;;;;;;;;;;;;;;5134204;27;19946;-68
2021/10/31 03:16:38;;;;;;;;;;;;;;;;;;5133568;27;19929;-68
2021/10/31 03:19:04;;;;;;;;;;;;;;;;;;5134079;27;19930;-67
2021/10/31 03:21:31;;;;;;;;;;;;;;;;;;5133561;27;19946;-67
2021/10/31 03:23:59;;;;;;;;;;;;;;;;;;5133039;27;21333;-67
2021/10/31 03:26:25;;;;;;;;;;;;;;;;;;5134086;27;19931;-68
2021/10/31 03:28:51;;;;;;;;;;;;;;;;;;5133923;27;19923;-68
2021/10/31 03:31:18;;;;;;;;;;;;;;;;;;5133791;27;19931;-68
2021/10/31 03:33:44;;;;;;;;;;;;;;;;;;5133925;27;19930;-68
2021/10/31 03:36:10;;;;;;;;;;;;;;;;;;5133638;27;20377;-68
2021/10/31 03:38:37;;;;;;;;;;;;;;;;;;5133151;27;19930;-68
2021/10/31 03:41:03;;;;;;;;;;;;;;;;;;5134069;27;19924;-68
2021/10/31 03:43:29;;;;;;;;;;;;;;;;;;5133493;27;19923;-67
2021/10/31 03:45:55;;;;;;;;;;;;;;;;;;5133907;28;19931;-67
2021/10/31 03:48:22;;;;;;;;;;;;;;;;;;5133639;28;19923;-67
2021/10/31 03:50:48;;;;;;;;;;;;;;;;;;5133234;28;19923;-67
2021/10/31 03:53:14;;;;;;;;;;;;;;;;;;5133759;28;19930;-68
2021/10/31 03:55:41;;;;;;;;;;;;;;;;;;5133432;28;19946;-68
2021/10/31 03:58:07;;;;;;;;;;;;;;;;;;5133110;28;19942;-68
2021/10/31 04:00:34;;;;;;;;;;;;;;;;;;5133393;28;19924;-68
2021/10/31 04:03:00;;;;;;;;;;;;;;;;;;5133605;28;19930;-67
2021/10/31 04:05:26;;;;;;;;;;;;;;;;;;5133076;28;19930;-68
2021/10/31 04:07:52;;;;;;;;;;;;;;;;;;5135824;27;19930;-67
2021/10/31 04:10:19;;;;;;;;;;;;;;;;;;5137711;27;20274;-67
2021/10/31 04:12:49;;;;;;;;;;;;;;;;;;5137200;27;19924;-67
2021/10/31 04:15:15;;;;;;;;;;;;;;;;;;5137476;27;20418;-67
2021/10/31 04:17:42;;;;;;;;;;;;;;;;;;5137013;27;19923;-67
2021/10/31 04:20:08;;;;;;;;;;;;;;;;;;5137464;27;19923;-67
2021/10/31 04:22:35;;;;;;;;;;;;;;;;;;5136930;27;19923;-68
2021/10/31 04:25:01;;;;;;;;;;;;;;;;;;5137200;27;19934;-67
2021/10/31 04:27:27;;;;;;;;;;;;;;;;;;5137391;27;19934;-67
2021/10/31 04:29:54;;;;;;;;;;;;;;;;;;5137325;27;19924;-67
2021/10/31 04:32:20;;;;;;;;;;;;;;;;;;5137055;27;19923;-67
2021/10/31 04:34:46;;;;;;;;;;;;;;;;;;5137222;27;19927;-67
2021/10/31 04:37:13;;;;;;;;;;;;;;;;;;5136697;27;20373;-67
2021/10/31 04:39:40;;;;;;;;;;;;;;;;;;5136703;27;20349;-67
2021/10/31 04:42:07;;;;;;;;;;;;;;;;;;5137132;27;19930;-67
2021/10/31 04:44:34;;;;;;;;;;;;;;;;;;5136571;27;20355;-67
2021/10/31 04:47:00;;;;;;;;;;;;;;;;;;5136611;27;19931;-67
2021/10/31 04:49:26;;;;;;;;;;;;;;;;;;5136707;27;19924;-67
2021/10/31 04:51:53;;;;;;;;;;;;;;;;;;5136663;27;19923;-67
2021/10/31 04:54:19;;;;;;;;;;;;;;;;;;5136922;27;19923;-68
2021/10/31 04:56:45;;;;;;;;;;;;;;;;;;5136257;27;20526;-67
2021/10/31 04:59:11;;;;;;;;;;;;;;;;;;5136822;27;19923;-67
2021/10/31 05:01:38;;;;;;;;;;;;;;;;;;5136400;27;19927;-67
2021/10/31 05:04:04;;;;;;;;;;;;;;;;;;5136537;27;19930;-67
2021/10/31 05:06:30;;;;;;;;;;;;;;;;;;5136368;27;19930;-67
2021/10/31 05:08:57;;;;;;;;;;;;;;;;;;5136435;27;20370;-67
2021/10/31 05:11:23;;;;;;;;;;;;;;;;;;5136212;27;19923;-67
2021/10/31 05:13:49;;;;;;;;;;;;;;;;;;5136353;27;19923;-67
2021/10/31 05:16:16;;;;;;;;;;;;;;;;;;5136497;27;19946;-67
2021/10/31 05:18:42;;;;;;;;;;;;;;;;;;5134529;27;19923;-67
2021/10/31 05:21:08;;;;;;;;;;;;;;;;;;5135752;27;19931;-67
2021/10/31 05:23:34;;;;;;;;;;;;;;;;;;5136132;27;19923;-67
2021/10/31 05:26:01;;;;;;;;;;;;;;;;;;5136018;27;19923;-68
2021/10/31 05:28:28;;;;;;;;;;;;;;;;;;5136031;27;19931;-67
2021/10/31 05:30:54;;;;;;;;;;;;;;;;;;5135805;27;19923;-67
2021/10/31 05:33:22;;;;;;;;;;;;;;;;;;5136302;27;19931;-68
2021/10/31 05:35:50;;;;;;;;;;;;;;;;;;5135673;27;19928;-67
2021/10/31 05:38:19;;;;;;;;;;;;;;;;;;5136050;27;20355;-67
2021/10/31 05:40:45;;;;;;;;;;;;;;;;;;5135754;27;19924;-67
2021/10/31 05:43:11;;;;;;;;;;;;;;;;;;5135717;27;19923;-67
2021/10/31 05:45:38;;;;;;;;;;;;;;;;;;5135690;27;19930;-67
2021/10/31 05:48:04;;;;;;;;;;;;;;;;;;5135496;27;19924;-67
2021/10/31 05:50:30;;;;;;;;;;;;;;;;;;5135572;27;19931;-67
2021/10/31 05:52:56;;;;;;;;;;;;;;;;;;5135453;27;20285;-68
2021/10/31 05:55:23;;;;;;;;;;;;;;;;;;5135432;27;19923;-68
2021/10/31 05:57:49;;;;;;;;;;;;;;;;;;5135315;27;19934;-67
2021/10/31 06:00:15;;;;;;;;;;;;;;;;;;5135358;27;20424;-68
2021/10/31 06:02:42;;;;;;;;;;;;;;;;;;5135089;27;19970;-67
2021/10/31 06:05:08;;;;;;;;;;;;;;;;;;5135463;27;19931;-68
2021/10/31 06:07:34;;;;;;;;;;;;;;;;;;5135293;27;19923;-68
2021/10/31 06:10:00;;;;;;;;;;;;;;;;;;5135147;27;19930;-68
2021/10/31 06:12:27;;;;;;;;;;;;;;;;;;5135039;27;19923;-68
2021/10/31 06:14:53;;;;;;;;;;;;;;;;;;5135086;27;20304;-67
2021/10/31 06:17:19;;;;;;;;;;;;;;;;;;5135073;27;19934;-67
2021/10/31 06:19:46;;;;;;;;;;;;;;;;;;5134966;27;19923;-68
2021/10/31 06:22:12;;;;;;;;;;;;;;;;;;5134782;27;20270;-68
2021/10/31 06:24:38;;;;;;;;;;;;;;;;;;5134681;27;19923;-68
2021/10/31 06:27:05;;;;;;;;;;;;;;;;;;5134981;27;19930;-68
2021/10/31 06:29:31;;;;;;;;;;;;;;;;;;5134272;27;20304;-68
2021/10/31 06:31:57;;;;;;;;;;;;;;;;;;5134695;27;19929;-68
2021/10/31 06:34:24;;;;;;;;;;;;;;;;;;5134688;27;19929;-68
2021/10/31 06:36:50;;;;;;;;;;;;;;;;;;5134594;27;19927;-68
2021/10/31 06:39:16;;;;;;;;;;;;;;;;;;5134527;27;19924;-68
2021/10/31 06:41:42;;;;;;;;;;;;;;;;;;5134563;27;19923;-67
2021/10/31 06:44:09;;;;;;;;;;;;;;;;;;5134503;27;20281;-68
2021/10/31 06:46:35;;;;;;;;;;;;;;;;;;5134412;27;19923;-68
2021/10/31 06:49:03;;;;;;;;;;;;;;;;;;5134536;27;19923;-68
2021/10/31 06:51:29;;;;;;;;;;;;;;;;;;5134287;27;19923;-68
2021/10/31 06:53:55;;;;;;;;;;;;;;;;;;5134420;27;19927;-68
2021/10/31 06:56:24;;;;;;;;;;;;;;;;;;5134263;27;19923;-68
2021/10/31 06:58:51;;;;;;;;;;;;;;;;;;5134225;27;19924;-68
2021/10/31 07:01:17;;;;;;;;;;;;;;;;;;5134421;27;19923;-67
2021/10/31 07:03:46;;;;;;;;;;;;;;;;;;5134132;27;19923;-68
2021/10/31 07:06:12;;;;;;;;;;;;;;;;;;5134041;27;20018;-68
2021/10/31 07:08:38;;;;;;;;;;;;;;;;;;5133762;27;19931;-67
2021/10/31 07:11:05;;;;;;;;;;;;;;;;;;5133976;27;20387;-68
2021/10/31 07:13:31;;;;;;;;;;;;;;;;;;5133590;27;19923;-68
2021/10/31 07:15:57;;;;;;;;;;;;;;;;;;5134315;27;19924;-68
2021/10/31 07:18:23;;;;;;;;;;;;;;;;;;5133792;27;20361;-68
2021/10/31 07:20:50;;;;;;;;;;;;;;;;;;5133375;27;19930;-67
2021/10/31 07:23:16;;;;;;;;;;;;;;;;;;5134377;27;19930;-68
2021/10/31 07:25:42;;;;;;;;;;;;;;;;;;5133864;27;19958;-68
2021/10/31 07:28:09;;;;;;;;;;;;;;;;;;5133839;27;19930;-68
2021/10/31 07:30:35;;;;;;;;;;;;;;;;;;5133687;27;19930;-67
2021/10/31 07:33:01;;;;;;;;;;;;;;;;;;5134084;27;20010;-68
2021/10/31 07:35:28;;;;;;;;;;;;;;;;;;5133352;27;20385;-68
2021/10/31 07:37:54;;;;;;;;;;;;;;;;;;5133546;27;19923;-68
2021/10/31 07:40:21;;;;;;;;;;;;;;;;;;5133458;27;19981;-68
2021/10/31 07:42:48;;;;;;;;;;;;;;;;;;5132606;27;19932;-68
2021/10/31 07:45:14;;;;;;;;;;;;;;;;;;5133792;27;19946;-68
2021/10/31 07:47:41;;;;;;;;;;;;;;;;;;5133239;28;19928;-68
2021/10/31 07:50:07;;;;;;;;;;;;;;;;;;5133938;28;19924;-67
2021/10/31 07:52:34;;;;;;;;;;;;;;;;;;5133064;28;19923;-68
2021/10/31 07:55:03;;;;;;;;;;;;;;;;;;5133264;28;19933;-67
2021/10/31 07:57:31;;;;;;;;;;;;;;;;;;5133462;28;20031;-68
2021/10/31 07:59:57;;;;;;;;;;;;;;;;;;5133543;28;19955;-67
2021/10/31 08:02:24;;;;;;;;;;;;;;;;;;5133545;28;20277;-68
2021/10/31 08:04:50;;;;;;;;;;;;;;;;;;5133304;28;19923;-68
2021/10/31 08:07:17;;;;;;;;;;;;;;;;;;5133965;28;19924;-68
2021/10/31 08:09:43;;;;;;;;;;;;;;;;;;5133105;28;19930;-68
2021/10/31 08:12:09;;;;;;;;;;;;;;;;;;5133554;28;19930;-68
2021/10/31 08:14:36;;;;;;;;;;;;;;;;;;5133252;28;19947;-67
2021/10/31 08:17:02;;;;;;;;;;;;;;;;;;5133102;28;19924;-67
2021/10/31 08:19:28;;;;;;;;;;;;;;;;;;5133105;28;19923;-67
2021/10/31 08:21:55;;;;;;;;;;;;;;;;;;5133027;28;20381;-67
2021/10/31 08:24:21;;;;;;;;;;;;;;;;;;5133026;28;19927;-66
2021/10/31 08:26:47;;;;;;;;;;;;;;;;;;5133153;28;19923;-66
2021/10/31 08:29:16;;;;;;;;;;;;;;;;;;5133114;28;20411;-67
2021/10/31 08:31:45;;;;;;;;;;;;;;;;;;5132755;28;20377;-66
2021/10/31 08:34:13;;;;;;;;;;;;;;;;;;5132930;28;19935;-66
2021/10/31 08:36:39;;;;;;;;;;;;;;;;;;5133017;28;19924;-66
2021/10/31 08:39:05;;;;;;;;;;;;;;;;;;5133198;28;19924;-66
2021/10/31 08:41:32;;;;;;;;;;;;;;;;;;5132730;28;19924;-66
2021/10/31 08:43:58;;;;;;;;;;;;;;;;;;5133225;28;19931;-66
2021/10/31 08:46:25;;;;;;;;;;;;;;;;;;5132785;28;20408;-66
2021/10/31 08:48:51;;;;;;;;;;;;;;;;;;5132676;28;19928;-67
2021/10/31 08:51:19;;;;;;;;;;;;;;;;;;5133198;28;19923;-66
2021/10/31 08:53:46;;;;;;;;;;;;;;;;;;5134422;27;19974;-66
2021/10/31 08:56:13;;;;;;;;;;;;;;;;;;5136431;27;19924;-67
2021/10/31 08:58:39;;;;;;;;;;;;;;;;;;5135764;27;20014;-65
2021/10/31 09:01:06;;;;;;;;;;;;;;;;;;5136268;27;19930;-65
2021/10/31 09:03:32;;;;;;;;;;;;;;;;;;5136564;27;19923;-66
2021/10/31 09:05:58;;;;;;;;;;;;;;;;;;5136413;27;20317;-66
2021/10/31 09:08:24;;;;;;;;;;;;;;;;;;5136404;27;19929;-67
2021/10/31 09:10:52;;;;;;;;;;;;;;;;;;5136108;27;19923;-67
2021/10/31 09:13:18;;;;;;;;;;;;;;;;;;5136229;27;19970;-69
2021/10/31 09:15:45;;;;;;;;;;;;;;;;;;5136322;27;19923;-68
2021/10/31 09:18:11;;;;;;;;;;;;;;;;;;5136372;27;19927;-69
2021/10/31 09:20:37;;;;;;;;;;;;;;;;;;5135868;27;19924;-67
2021/10/31 09:23:04;;;;;;;;;;;;;;;;;;5136179;27;20274;-68
2021/10/31 09:25:30;;;;;;;;;;;;;;;;;;5134049;27;19930;-67
2021/10/31 09:27:57;;;;;;;;;;;;;;;;;;5136088;27;19923;-67
2021/10/31 09:30:25;;;;;;;;;;;;;;;;;;5136261;27;19969;-67
2021/10/31 09:32:51;;;;;;;;;;;;;;;;;;5135918;27;20457;-67
2021/10/31 09:35:18;;;;;;;;;;;;;;;;;;5136170;27;19923;-67
2021/10/31 09:37:45;;;;;;;;;;;;;;;;;;5135512;27;20281;-67
2021/10/31 09:40:12;;;;;;;;;;;;;;;;;;5135766;27;20325;-66
2021/10/31 09:42:38;;;;;;;;;;;;;;;;;;5135816;27;19930;-67
2021/10/31 09:45:04;;;;;;;;;;;;;;;;;;5135889;27;20010;-66
2021/10/31 09:47:31;;;;;;;;;;;;;;;;;;5135632;27;20030;-66
2021/10/31 09:49:57;;;;;;;;;;;;;;;;;;5135484;27;19930;-67
2021/10/31 09:52:23;;;;;;;;;;;;;;;;;;5135439;27;19930;-67
2021/10/31 09:54:49;;;;;;;;;;;;;;;;;;5135611;27;19930;-67
2021/10/31 09:57:16;;;;;;;;;;;;;;;;;;5135455;27;20397;-67
2021/10/31 09:59:49;;;;;;;;;;;;;;;;;;5135243;27;19927;-67
2021/10/31 10:02:25;;;;;;;;;;;;;;;;;;5135383;27;19930;-67
2021/10/31 10:04:53;;;;;;;;;;;;;;;;;;5134632;27;20403;-66
2021/10/31 10:07:20;;;;;;;;;;;;;;;;;;5135112;27;20021;-67
2021/10/31 10:09:46;;;;;;;;;;;;;;;;;;5135239;27;20404;-67
2021/10/31 10:12:12;;;;;;;;;;;;;;;;;;5135137;27;19927;-67
2021/10/31 10:14:39;;;;;;;;;;;;;;;;;;5134490;27;19924;-67
2021/10/31 10:17:05;;;;;;;;;;;;;;;;;;5134768;27;19923;-66
2021/10/31 10:19:31;;;;;;;;;;;;;;;;;;5134550;27;19923;-67
2021/10/31 10:21:57;;;;;;;;;;;;;;;;;;5134818;27;19924;-66
2021/10/31 10:24:24;;;;;;;;;;;;;;;;;;5134938;27;19923;-67
2021/10/31 10:26:50;;;;;;;;;;;;;;;;;;5134546;27;20335;-67
2021/10/31 10:29:17;;;;;;;;;;;;;;;;;;5134809;27;19923;-67
2021/10/31 10:31:43;;;;;;;;;;;;;;;;;;5134824;27;19924;-67
2021/10/31 10:34:10;;;;;;;;;;;;;;;;;;5134876;27;19923;-66
2021/10/31 10:36:36;;;;;;;;;;;;;;;;;;5134347;27;19930;-66
2021/10/31 10:39:02;;;;;;;;;;;;;;;;;;5134923;27;19927;-67
2021/10/31 10:41:29;;;;;;;;;;;;;;;;;;5134662;27;19923;-67
2021/10/31 10:43:55;;;;;;;;;;;;;;;;;;5134856;27;20305;-67
2021/10/31 10:46:21;;;;;;;;;;;;;;;;;;5134495;27;20561;-67
2021/10/31 10:48:48;;;;;;;;;;;;;;;;;;5134016;27;19923;-67
2021/10/31 10:51:14;;;;;;;;;;;;;;;;;;5134688;27;19946;-67
2021/10/31 10:53:40;;;;;;;;;;;;;;;;;;5134098;27;19930;-67
2021/10/31 10:56:06;;;;;;;;;;;;;;;;;;5134517;27;19929;-67
2021/10/31 10:58:33;;;;;;;;;;;;;;;;;;5133965;27;20305;-67
2021/10/31 11:01:00;;;;;;;;;;;;;;;;;;5134580;27;19931;-67
2021/10/31 11:03:26;;;;;;;;;;;;;;;;;;5133925;27;20381;-66
2021/10/31 11:05:52;;;;;;;;;;;;;;;;;;5134173;27;20026;-67
2021/10/31 11:08:19;;;;;;;;;;;;;;;;;;5134239;27;19923;-67
2021/10/31 11:10:45;;;;;;;;;;;;;;;;;;5133642;27;20490;-67
2021/10/31 11:13:11;;;;;;;;;;;;;;;;;;5134054;27;19930;-67
2021/10/31 11:15:37;;;;;;;;;;;;;;;;;;5133953;27;19923;-67
2021/10/31 11:18:04;;;;;;;;;;;;;;;;;;5133189;27;19952;-67
2021/10/31 11:20:30;;;;;;;;;;;;;;;;;;5133751;27;19923;-66
2021/10/31 11:22:57;;;;;;;;;;;;;;;;;;5133768;27;20285;-67
2021/10/31 11:25:23;;;;;;;;;;;;;;;;;;5134339;27;19927;-67
2021/10/31 11:27:50;;;;;;;;;;;;;;;;;;5133495;27;19924;-67
2021/10/31 11:30:16;;;;;;;;;;;;;;;;;;5134043;27;19923;-67
2021/10/31 11:32:42;;;;;;;;;;;;;;;;;;5133546;27;19937;-67
2021/10/31 11:35:08;;;;;;;;;;;;;;;;;;5133731;27;19924;-67
2021/10/31 11:37:35;;;;;;;;;;;;;;;;;;5133711;27;19923;-67
2021/10/31 11:40:01;;;;;;;;;;;;;;;;;;5133773;27;19923;-67
2021/10/31 11:42:27;;;;;;;;;;;;;;;;;;5133457;27;20480;-67
2021/10/31 11:44:54;;;;;;;;;;;;;;;;;;5133629;27;19930;-67
2021/10/31 11:47:20;;;;;;;;;;;;;;;;;;5133398;27;20387;-67
2021/10/31 11:49:46;;;;;;;;;;;;;;;;;;5133220;27;19933;-68
2021/10/31 11:52:12;;;;;;;;;;;;;;;;;;5133601;27;19934;-67
2021/10/31 11:54:39;;;;;;;;;;;;;;;;;;5133382;28;20386;-67
2021/10/31 11:57:05;;;;;;;;;;;;;;;;;;5133508;28;19923;-68
2021/10/31 11:59:31;;;;;;;;;;;;;;;;;;5133347;28;19923;-67
2021/10/31 12:01:59;;;;;;;;;;;;;;;;;;5133244;28;20390;-67
2021/10/31 12:04:25;;;;;;;;;;;;;;;;;;5133557;28;19923;-67
2021/10/31 12:06:52;;;;;;;;;;;;;;;;;;5133285;28;20374;-67
2021/10/31 12:09:19;;;;;;;;;;;;;;;;;;5133502;28;19924;-67
2021/10/31 12:11:47;;;;;;;;;;;;;;;;;;5133547;28;19931;-67
2021/10/31 12:14:13;;;;;;;;;;;;;;;;;;5133467;28;19942;-67
2021/10/31 12:16:39;;;;;;;;;;;;;;;;;;5132955;28;20301;-67
2021/10/31 12:19:06;;;;;;;;;;;;;;;;;;5133290;28;19923;-67
2021/10/31 12:21:32;;;;;;;;;;;;;;;;;;5132858;28;19931;-67
2021/10/31 12:23:59;;;;;;;;;;;;;;;;;;5133038;28;19927;-67
2021/10/31 12:26:25;;;;;;;;;;;;;;;;;;5133160;28;19923;-67
2021/10/31 12:28:51;;;;;;;;;;;;;;;;;;5135217;27;20415;-67
2021/10/31 12:31:18;;;;;;;;;;;;;;;;;;5137020;27;19923;-67
2021/10/31 12:33:44;;;;;;;;;;;;;;;;;;5137064;27;19924;-67
2021/10/31 12:36:10;;;;;;;;;;;;;;;;;;5136992;27;19923;-67
2021/10/31 12:38:38;;;;;;;;;;;;;;;;;;5137197;27;19931;-67
2021/10/31 12:41:04;;;;;;;;;;;;;;;;;;5137065;27;19923;-67
2021/10/31 12:43:30;;;;;;;;;;;;;;;;;;5136849;27;19931;-67
2021/10/31 12:45:56;;;;;;;;;;;;;;;;;;5137341;27;19923;-67
2021/10/31 12:48:23;;;;;;;;;;;;;;;;;;5136905;27;20408;-67
2021/10/31 12:50:49;;;;;;;;;;;;;;;;;;5136442;27;19924;-67
2021/10/31 12:53:15;;;;;;;;;;;;;;;;;;5137042;27;20126;-67
2021/10/31 12:55:42;;;;;;;;;;;;;;;;;;5136402;27;20410;-68
2021/10/31 12:58:08;;;;;;;;;;;;;;;;;;5136895;27;19923;-68
2021/10/31 13:00:34;;;;;;;;;;;;;;;;;;5136347;27;19929;-67
2021/10/31 13:03:02;;;;;;;;;;;;;;;;;;5136708;27;20427;-67
2021/10/31 13:05:28;;;;;;;;;;;;;;;;;;5136668;27;19959;-67
2021/10/31 13:07:55;;;;;;;;;;;;;;;;;;5136782;27;19923;-68
2021/10/31 13:10:21;;;;;;;;;;;;;;;;;;5136333;27;20296;-67
2021/10/31 13:12:47;;;;;;;;;;;;;;;;;;5136029;27;19924;-67
2021/10/31 13:15:14;;;;;;;;;;;;;;;;;;5136601;27;19927;-67
2021/10/31 13:17:40;;;;;;;;;;;;;;;;;;5136043;27;20289;-67
2021/10/31 13:20:06;;;;;;;;;;;;;;;;;;5136167;27;19930;-67
2021/10/31 13:22:33;;;;;;;;;;;;;;;;;;5135763;27;19924;-67
2021/10/31 13:24:59;;;;;;;;;;;;;;;;;;5136108;27;20374;-67
2021/10/31 13:27:26;;;;;;;;;;;;;;;;;;5136068;27;19924;-67
2021/10/31 13:29:52;;;;;;;;;;;;;;;;;;5136248;27;19923;-67
2021/10/31 13:32:19;;;;;;;;;;;;;;;;;;5135781;27;19938;-67
2021/10/31 13:34:45;;;;;;;;;;;;;;;;;;5135925;27;19931;-67
2021/10/31 13:37:11;;;;;;;;;;;;;;;;;;5135818;27;19923;-68
2021/10/31 13:39:38;;;;;;;;;;;;;;;;;;5134655;27;19930;-67
2021/10/31 13:42:05;;;;;;;;;;;;;;;;;;5136013;27;19943;-67
2021/10/31 13:44:31;;;;;;;;;;;;;;;;;;5135188;27;20018;-67
2021/10/31 13:49:38;;;;;;;;;;;;;;;;;;5133049;27;19976;-67
2021/10/31 13:52:04;;;;;;;;;;;;;;;;;;5135835;27;19934;-67
2021/10/31 13:54:30;;;;;;;;;;;;;;;;;;5135568;27;19924;-67
2021/10/31 13:56:57;;;;;;;;;;;;;;;;;;5135355;27;19924;-67
2021/10/31 13:59:23;;;;;;;;;;;;;;;;;;5135674;27;19931;-68
2021/10/31 14:01:49;;;;;;;;;;;;;;;;;;5134990;27;20289;-67
2021/10/31 14:04:16;;;;;;;;;;;;;;;;;;5135508;27;19923;-68
2021/10/31 14:06:42;;;;;;;;;;;;;;;;;;5135153;27;19930;-66
2021/10/31 14:09:09;;;;;;;;;;;;;;;;;;5135254;27;20502;-66
2021/10/31 14:11:36;;;;;;;;;;;;;;;;;;5135181;27;19963;-66
2021/10/31 14:14:03;;;;;;;;;;;;;;;;;;5135031;27;19929;-69
2021/10/31 14:16:30;;;;;;;;;;;;;;;;;;5135105;27;19924;-69
2021/10/31 14:18:56;;;;;;;;;;;;;;;;;;5135286;27;19927;-68
2021/10/31 14:21:22;;;;;;;;;;;;;;;;;;5134887;27;20022;-69
2021/10/31 14:23:49;;;;;;;;;;;;;;;;;;5134623;27;20392;-68
2021/10/31 14:26:15;;;;;;;;;;;;;;;;;;5135150;27;19923;-69
2021/10/31 14:28:43;;;;;;;;;;;;;;;;;;5134824;27;19923;-68
2021/10/31 14:31:10;;;;;;;;;;;;;;;;;;5134692;27;20014;-68
2021/10/31 14:33:37;;;;;;;;;;;;;;;;;;5134718;27;19923;-68
2021/10/31 14:36:03;;;;;;;;;;;;;;;;;;5134757;27;20270;-68
2021/10/31 14:38:29;;;;;;;;;;;;;;;;;;5134342;27;19996;-67
2021/10/31 14:40:56;;;;;;;;;;;;;;;;;;5134655;27;19928;-68
2021/10/31 14:43:22;;;;;;;;;;;;;;;;;;5134406;27;20289;-68
2021/10/31 14:45:48;;;;;;;;;;;;;;;;;;5134273;27;19924;-67
2021/10/31 14:48:14;;;;;;;;;;;;;;;;;;5133938;27;19927;-70
2021/10/31 14:50:41;;;;;;;;;;;;;;;;;;5133379;27;19923;-69
2021/10/31 14:53:07;;;;;;;;;;;;;;;;;;5134178;27;19945;-68
2021/10/31 14:55:33;;;;;;;;;;;;;;;;;;5134299;27;19927;-68
2021/10/31 14:58:01;;;;;;;;;;;;;;;;;;5134572;27;19923;-68
2021/10/31 15:00:29;;;;;;;;;;;;;;;;;;5134221;27;19931;-69
2021/10/31 15:02:55;;;;;;;;;;;;;;;;;;5134321;27;19927;-67
2021/10/31 15:05:21;;;;;;;;;;;;;;;;;;5134114;27;20288;-68
2021/10/31 15:07:47;;;;;;;;;;;;;;;;;;5133809;27;19923;-68
2021/10/31 15:10:14;;;;;;;;;;;;;;;;;;5134291;27;19923;-68
2021/10/31 15:12:40;;;;;;;;;;;;;;;;;;5133703;27;20281;-68
2021/10/31 15:15:06;;;;;;;;;;;;;;;;;;5133957;27;19924;-67
2021/10/31 15:17:37;;;;;;;;;;;;;;;;;;5133912;27;19930;-67
2021/10/31 15:20:04;;;;;;;;;;;;;;;;;;5132922;27;19923;-68
2021/10/31 15:22:30;;;;;;;;;;;;;;;;;;5133978;27;19927;-68
2021/10/31 15:24:56;;;;;;;;;;;;;;;;;;5134026;27;19927;-68
2021/10/31 15:27:22;;;;;;;;;;;;;;;;;;5133485;27;19924;-68
2021/10/31 15:29:51;;;;;;;;;;;;;;;;;;5134055;27;19924;-68
2021/10/31 15:32:17;;;;;;;;;;;;;;;;;;5133749;27;19961;-67
2021/10/31 15:34:43;;;;;;;;;;;;;;;;;;5133778;27;19945;-69
2021/10/31 15:37:12;;;;;;;;;;;;;;;;;;5133877;27;19923;-68
2021/10/31 15:39:38;;;;;;;;;;;;;;;;;;5133693;27;19984;-68
2021/10/31 15:42:04;;;;;;;;;;;;;;;;;;5133399;27;19923;-67
2021/10/31 15:44:31;;;;;;;;;;;;;;;;;;5133292;27;19973;-68
2021/10/31 15:46:57;;;;;;;;;;;;;;;;;;5133825;27;19930;-68
2021/10/31 15:49:24;;;;;;;;;;;;;;;;;;5133446;27;20378;-69
2021/10/31 15:51:50;;;;;;;;;;;;;;;;;;5133101;27;19978;-68
2021/10/31 15:54:17;;;;;;;;;;;;;;;;;;5133720;27;19924;-68
2021/10/31 15:56:43;;;;;;;;;;;;;;;;;;5133580;27;19923;-68
2021/10/31 15:59:09;;;;;;;;;;;;;;;;;;5133302;28;19923;-67
2021/10/31 16:01:36;;;;;;;;;;;;;;;;;;5133335;28;19934;-68
2021/10/31 16:04:04;;;;;;;;;;;;;;;;;;5135856;27;19923;-68
2021/10/31 16:06:31;;;;;;;;;;;;;;;;;;5137399;27;19930;-67
2021/10/31 16:08:57;;;;;;;;;;;;;;;;;;5137918;27;19923;-68
2021/10/31 16:11:23;;;;;;;;;;;;;;;;;;5137339;27;19963;-67
2021/10/31 16:13:50;;;;;;;;;;;;;;;;;;5137556;27;19923;-67
2021/10/31 16:16:17;;;;;;;;;;;;;;;;;;5137409;27;20404;-67
2021/10/31 16:18:43;;;;;;;;;;;;;;;;;;5137153;27;19970;-68
2021/10/31 16:21:09;;;;;;;;;;;;;;;;;;5137299;27;19923;-68
2021/10/31 16:23:35;;;;;;;;;;;;;;;;;;5136964;27;20405;-68
2021/10/31 16:26:02;;;;;;;;;;;;;;;;;;5137397;27;19924;-67
2021/10/31 16:28:28;;;;;;;;;;;;;;;;;;5137288;27;19929;-67
2021/10/31 16:30:55;;;;;;;;;;;;;;;;;;5137168;27;19930;-67
2021/10/31 16:33:21;;;;;;;;;;;;;;;;;;5137031;27;20327;-68
2021/10/31 16:35:48;;;;;;;;;;;;;;;;;;5136657;27;19929;-68
2021/10/31 16:38:14;;;;;;;;;;;;;;;;;;5137282;27;19923;-68
2021/10/31 16:40:40;;;;;;;;;;;;;;;;;;5136604;27;20392;-67
2021/10/31 16:43:13;;;;;;;;;;;;;;;;;;5136896;27;19930;-67